sensor_id;sensor_type;location;lat;lon;timestamp;pressure;altitude;pressure_sealevel;temperature;humidity
25084;BME280;13075;55.682;37.564;2023-02-23T00:01:25;99421.56;;;-7.00;70.96
25084;BME280;13075;55.682;37.564;2023-02-23T00:03:54;99431.31;;;-7.32;71.78
25084;BME280;13075;55.682;37.564;2023-02-23T00:06:21;99424.63;;;-7.22;71.78
25084;BME280;13075;55.682;37.564;2023-02-23T00:08:47;99431.72;;;-7.10;71.20
25084;BME280;13075;55.682;37.564;2023-02-23T00:11:14;99430.19;;;-7.14;71.73
25084;BME280;13075;55.682;37.564;2023-02-23T00:13:41;99434.00;;;-6.91;69.74
25084;BME280;13075;55.682;37.564;2023-02-23T00:16:12;99428.97;;;-6.80;69.32
25084;BME280;13075;55.682;37.564;2023-02-23T00:18:42;99439.50;;;-6.81;68.15
25084;BME280;13075;55.682;37.564;2023-02-23T00:21:25;99433.47;;;-7.10;71.05
25084;BME280;13075;55.682;37.564;2023-02-23T00:23:58;99452.00;;;-6.88;70.90
25084;BME280;13075;55.682;37.564;2023-02-23T00:26:28;99436.66;;;-7.35;70.99
25084;BME280;13075;55.682;37.564;2023-02-23T00:29:15;99452.44;;;-7.38;76.19
25084;BME280;13075;55.682;37.564;2023-02-23T00:31:43;99453.88;;;-6.90;72.52
25084;BME280;13075;55.682;37.564;2023-02-23T00:34:10;99446.28;;;-7.07;71.80
25084;BME280;13075;55.682;37.564;2023-02-23T00:36:36;99462.63;;;-7.49;75.56
25084;BME280;13075;55.682;37.564;2023-02-23T00:39:05;99457.47;;;-7.35;77.28
25084;BME280;13075;55.682;37.564;2023-02-23T00:41:42;99467.78;;;-7.33;76.47
25084;BME280;13075;55.682;37.564;2023-02-23T00:44:08;99461.41;;;-6.85;74.32
25084;BME280;13075;55.682;37.564;2023-02-23T00:46:33;99454.88;;;-7.21;72.55
25084;BME280;13075;55.682;37.564;2023-02-23T00:48:59;99456.53;;;-7.20;73.05
25084;BME280;13075;55.682;37.564;2023-02-23T00:51:26;99469.19;;;-7.14;72.58
25084;BME280;13075;55.682;37.564;2023-02-23T00:53:57;99465.56;;;-7.25;74.65
25084;BME280;13075;55.682;37.564;2023-02-23T00:56:24;99475.75;;;-7.66;75.33
25084;BME280;13075;55.682;37.564;2023-02-23T00:58:50;99473.22;;;-7.38;75.17
25084;BME280;13075;55.682;37.564;2023-02-23T01:01:15;99478.69;;;-7.42;75.24
25084;BME280;13075;55.682;37.564;2023-02-23T01:03:42;99458.13;;;-7.31;75.96
25084;BME280;13075;55.682;37.564;2023-02-23T01:06:12;99479.00;;;-7.63;76.63
25084;BME280;13075;55.682;37.564;2023-02-23T01:08:43;99480.59;;;-7.60;77.12
25084;BME280;13075;55.682;37.564;2023-02-23T01:11:14;99472.09;;;-7.78;81.10
25084;BME280;13075;55.682;37.564;2023-02-23T01:13:42;99481.09;;;-7.99;81.29
25084;BME280;13075;55.682;37.564;2023-02-23T01:16:10;99484.03;;;-7.60;80.09
25084;BME280;13075;55.682;37.564;2023-02-23T01:18:38;99485.31;;;-7.67;78.49
25084;BME280;13075;55.682;37.564;2023-02-23T01:21:05;99484.97;;;-8.06;80.77
25084;BME280;13075;55.682;37.564;2023-02-23T01:23:38;99490.34;;;-7.79;80.05
25084;BME280;13075;55.682;37.564;2023-02-23T01:26:05;99493.81;;;-7.94;83.62
25084;BME280;13075;55.682;37.564;2023-02-23T01:28:30;99499.94;;;-8.11;82.53
25084;BME280;13075;55.682;37.564;2023-02-23T01:30:56;99503.41;;;-8.26;84.02
25084;BME280;13075;55.682;37.564;2023-02-23T01:33:21;99502.56;;;-7.66;81.39
25084;BME280;13075;55.682;37.564;2023-02-23T01:35:57;99496.66;;;-7.83;82.78
25084;BME280;13075;55.682;37.564;2023-02-23T01:38:23;99500.50;;;-7.75;80.06
25084;BME280;13075;55.682;37.564;2023-02-23T01:40:49;99502.72;;;-7.69;79.72
25084;BME280;13075;55.682;37.564;2023-02-23T01:43:18;99494.88;;;-7.53;77.73
25084;BME280;13075;55.682;37.564;2023-02-23T01:45:55;99487.97;;;-7.68;79.18
25084;BME280;13075;55.682;37.564;2023-02-23T01:48:34;99485.94;;;-7.77;79.31
25084;BME280;13075;55.682;37.564;2023-02-23T01:51:06;99482.00;;;-7.54;77.35
25084;BME280;13075;55.682;37.564;2023-02-23T01:53:38;99489.88;;;-7.86;79.29
25084;BME280;13075;55.682;37.564;2023-02-23T01:56:08;99487.59;;;-7.46;77.04
25084;BME280;13075;55.682;37.564;2023-02-23T01:58:42;99491.41;;;-7.38;76.54
25084;BME280;13075;55.682;37.564;2023-02-23T02:01:10;99486.69;;;-7.31;76.33
25084;BME280;13075;55.682;37.564;2023-02-23T02:03:41;99499.13;;;-7.22;74.55
25084;BME280;13075;55.682;37.564;2023-02-23T02:06:12;99499.97;;;-7.36;73.45
25084;BME280;13075;55.682;37.564;2023-02-23T02:08:43;99502.50;;;-7.50;74.42
25084;BME280;13075;55.682;37.564;2023-02-23T02:11:13;99500.13;;;-7.39;73.78
25084;BME280;13075;55.682;37.564;2023-02-23T02:17:13;99509.91;;;-7.28;74.42
25084;BME280;13075;55.682;37.564;2023-02-23T02:26:06;99523.38;;;-7.51;73.64
25084;BME280;13075;55.682;37.564;2023-02-23T02:42:50;99533.72;;;-7.66;75.55
25084;BME280;13075;55.682;37.564;2023-02-23T02:45:41;99530.38;;;-7.38;75.54
25084;BME280;13075;55.682;37.564;2023-02-23T02:48:36;99529.13;;;-7.31;73.96
25084;BME280;13075;55.682;37.564;2023-02-23T02:51:25;99532.81;;;-7.80;75.88
25084;BME280;13075;55.682;37.564;2023-02-23T02:54:08;99533.84;;;-7.83;77.63
25084;BME280;13075;55.682;37.564;2023-02-23T02:56:37;99534.09;;;-7.87;76.69
25084;BME280;13075;55.682;37.564;2023-02-23T02:59:14;99529.13;;;-7.92;77.64
25084;BME280;13075;55.682;37.564;2023-02-23T03:01:59;99530.25;;;-7.96;79.47
25084;BME280;13075;55.682;37.564;2023-02-23T03:04:43;99534.84;;;-8.01;79.66
25084;BME280;13075;55.682;37.564;2023-02-23T03:07:39;99547.63;;;-7.67;79.09
25084;BME280;13075;55.682;37.564;2023-02-23T03:22:38;99537.75;;;-7.91;78.18
25084;BME280;13075;55.682;37.564;2023-02-23T03:25:31;99544.81;;;-7.93;78.08
25084;BME280;13075;55.682;37.564;2023-02-23T03:28:23;99536.28;;;-7.95;76.56
25084;BME280;13075;55.682;37.564;2023-02-23T03:31:25;99543.13;;;-7.94;78.77
25084;BME280;13075;55.682;37.564;2023-02-23T03:34:50;99547.31;;;-8.07;80.87
25084;BME280;13075;55.682;37.564;2023-02-23T03:37:48;99540.97;;;-8.33;81.53
25084;BME280;13075;55.682;37.564;2023-02-23T03:40:38;99550.41;;;-8.01;80.75
25084;BME280;13075;55.682;37.564;2023-02-23T03:43:34;99544.13;;;-7.81;79.52
25084;BME280;13075;55.682;37.564;2023-02-23T03:46:21;99554.19;;;-7.91;76.58
25084;BME280;13075;55.682;37.564;2023-02-23T03:49:09;99552.34;;;-7.89;77.68
25084;BME280;13075;55.682;37.564;2023-02-23T03:52:08;99550.00;;;-8.25;77.41
25084;BME280;13075;55.682;37.564;2023-02-23T03:54:59;99567.16;;;-8.22;80.82
25084;BME280;13075;55.682;37.564;2023-02-23T03:57:48;99562.38;;;-8.14;79.94
25084;BME280;13075;55.682;37.564;2023-02-23T04:00:39;99562.56;;;-8.33;79.77
25084;BME280;13075;55.682;37.564;2023-02-23T04:03:26;99560.38;;;-8.40;80.42
25084;BME280;13075;55.682;37.564;2023-02-23T04:06:13;99561.38;;;-8.43;81.97
25084;BME280;13075;55.682;37.564;2023-02-23T04:09:02;99569.06;;;-8.57;83.11
25084;BME280;13075;55.682;37.564;2023-02-23T04:11:55;99562.72;;;-8.36;81.46
25084;BME280;13075;55.682;37.564;2023-02-23T04:18:03;99579.97;;;-8.03;77.96
25084;BME280;13075;55.682;37.564;2023-02-23T04:20:28;99583.63;;;-8.07;76.26
25084;BME280;13075;55.682;37.564;2023-02-23T04:22:54;99578.88;;;-8.15;75.31
25084;BME280;13075;55.682;37.564;2023-02-23T04:25:20;99582.97;;;-8.11;75.14
25084;BME280;13075;55.682;37.564;2023-02-23T04:27:49;99583.31;;;-8.17;74.96
25084;BME280;13075;55.682;37.564;2023-02-23T04:30:15;99581.41;;;-8.13;75.17
25084;BME280;13075;55.682;37.564;2023-02-23T04:32:41;99582.03;;;-8.10;75.54
25084;BME280;13075;55.682;37.564;2023-02-23T04:35:08;99585.72;;;-8.45;76.65
25084;BME280;13075;55.682;37.564;2023-02-23T04:37:34;99579.72;;;-8.14;76.06
25084;BME280;13075;55.682;37.564;2023-02-23T04:39:59;99579.81;;;-8.32;75.96
25084;BME280;13075;55.682;37.564;2023-02-23T04:42:25;99583.16;;;-8.30;75.48
25084;BME280;13075;55.682;37.564;2023-02-23T04:44:51;99592.00;;;-8.02;74.30
25084;BME280;13075;55.682;37.564;2023-02-23T04:47:16;99586.50;;;-8.28;74.31
25084;BME280;13075;55.682;37.564;2023-02-23T04:49:42;99597.44;;;-8.38;75.82
25084;BME280;13075;55.682;37.564;2023-02-23T04:52:08;99601.47;;;-8.65;78.40
25084;BME280;13075;55.682;37.564;2023-02-23T04:54:37;99593.53;;;-8.30;78.22
25084;BME280;13075;55.682;37.564;2023-02-23T04:57:03;99602.00;;;-8.59;79.65
25084;BME280;13075;55.682;37.564;2023-02-23T04:59:30;99611.50;;;-8.42;76.08
25084;BME280;13075;55.682;37.564;2023-02-23T05:01:55;99594.09;;;-8.09;76.68
25084;BME280;13075;55.682;37.564;2023-02-23T05:04:21;99603.22;;;-8.17;75.49
25084;BME280;13075;55.682;37.564;2023-02-23T05:06:47;99597.78;;;-7.82;74.13
25084;BME280;13075;55.682;37.564;2023-02-23T05:09:13;99601.59;;;-7.87;71.07
25084;BME280;13075;55.682;37.564;2023-02-23T05:11:38;99610.09;;;-7.54;70.42
25084;BME280;13075;55.682;37.564;2023-02-23T05:14:04;99612.88;;;-7.57;70.78
25084;BME280;13075;55.682;37.564;2023-02-23T05:16:30;99614.63;;;-7.89;69.32
25084;BME280;13075;55.682;37.564;2023-02-23T05:18:56;99624.25;;;-8.06;71.24
25084;BME280;13075;55.682;37.564;2023-02-23T05:21:22;99629.34;;;-8.05;72.78
25084;BME280;13075;55.682;37.564;2023-02-23T05:23:49;99621.69;;;-7.75;71.16
25084;BME280;13075;55.682;37.564;2023-02-23T05:26:15;99625.59;;;-7.68;69.61
25084;BME280;13075;55.682;37.564;2023-02-23T05:28:41;99622.56;;;-8.07;69.45
25084;BME280;13075;55.682;37.564;2023-02-23T05:31:07;99620.91;;;-8.08;70.36
25084;BME280;13075;55.682;37.564;2023-02-23T05:33:34;99629.38;;;-7.89;69.50
25084;BME280;13075;55.682;37.564;2023-02-23T05:36:07;99626.13;;;-7.46;67.97
25084;BME280;13075;55.682;37.564;2023-02-23T05:38:33;99628.53;;;-8.05;68.68
25084;BME280;13075;55.682;37.564;2023-02-23T05:40:58;99620.66;;;-7.88;69.23
25084;BME280;13075;55.682;37.564;2023-02-23T05:43:24;99637.72;;;-7.37;67.07
25084;BME280;13075;55.682;37.564;2023-02-23T05:45:49;99634.88;;;-7.33;65.98
25084;BME280;13075;55.682;37.564;2023-02-23T05:48:15;99635.00;;;-7.05;64.03
25084;BME280;13075;55.682;37.564;2023-02-23T05:50:40;99632.81;;;-7.12;64.41
25084;BME280;13075;55.682;37.564;2023-02-23T05:53:06;99635.66;;;-6.57;63.06
25084;BME280;13075;55.682;37.564;2023-02-23T05:55:32;99633.06;;;-6.71;62.50
25084;BME280;13075;55.682;37.564;2023-02-23T05:57:57;99626.66;;;-6.23;61.95
25084;BME280;13075;55.682;37.564;2023-02-23T06:00:23;99624.31;;;-5.06;59.58
25084;BME280;13075;55.682;37.564;2023-02-23T06:02:48;99623.59;;;-5.08;56.90
25084;BME280;13075;55.682;37.564;2023-02-23T06:05:17;99633.00;;;-4.92;55.38
25084;BME280;13075;55.682;37.564;2023-02-23T06:07:42;99626.22;;;-5.34;55.64
25084;BME280;13075;55.682;37.564;2023-02-23T06:10:08;99631.50;;;-6.03;55.84
25084;BME280;13075;55.682;37.564;2023-02-23T06:12:34;99634.88;;;-4.17;54.88
25084;BME280;13075;55.682;37.564;2023-02-23T06:15:00;99635.09;;;-3.71;52.48
25084;BME280;13075;55.682;37.564;2023-02-23T06:17:25;99630.44;;;-3.92;52.14
25084;BME280;13075;55.682;37.564;2023-02-23T06:19:51;99623.66;;;-2.52;50.54
25084;BME280;13075;55.682;37.564;2023-02-23T06:22:16;99635.53;;;-1.15;48.06
25084;BME280;13075;55.682;37.564;2023-02-23T06:24:43;99619.63;;;1.09;44.72
25084;BME280;13075;55.682;37.564;2023-02-23T06:27:09;99621.38;;;0.61;43.86
25084;BME280;13075;55.682;37.564;2023-02-23T06:29:35;99615.88;;;2.06;42.89
25084;BME280;13075;55.682;37.564;2023-02-23T06:32:03;99607.97;;;2.06;42.84
25084;BME280;13075;55.682;37.564;2023-02-23T06:34:29;99601.63;;;3.85;42.75
25084;BME280;13075;55.682;37.564;2023-02-23T06:36:57;99601.63;;;4.94;41.88
25084;BME280;13075;55.682;37.564;2023-02-23T06:39:23;99606.44;;;5.72;40.91
25084;BME280;13075;55.682;37.564;2023-02-23T06:41:48;99615.06;;;3.23;40.28
25084;BME280;13075;55.682;37.564;2023-02-23T06:44:14;99623.75;;;1.69;41.02
25084;BME280;13075;55.682;37.564;2023-02-23T06:46:40;99637.34;;;-0.01;43.44
25084;BME280;13075;55.682;37.564;2023-02-23T06:49:05;99622.66;;;-0.86;44.72
25084;BME280;13075;55.682;37.564;2023-02-23T06:51:31;99629.69;;;0.76;42.66
25084;BME280;13075;55.682;37.564;2023-02-23T06:53:57;99627.38;;;0.33;43.13
25084;BME280;13075;55.682;37.564;2023-02-23T06:56:22;99642.63;;;-1.38;44.49
25084;BME280;13075;55.682;37.564;2023-02-23T06:58:48;99633.06;;;-0.43;43.91
25084;BME280;13075;55.682;37.564;2023-02-23T07:01:14;99636.53;;;1.16;42.85
25084;BME280;13075;55.682;37.564;2023-02-23T07:03:40;99625.75;;;2.59;41.25
25084;BME280;13075;55.682;37.564;2023-02-23T07:06:06;99624.72;;;3.75;41.33
25084;BME280;13075;55.682;37.564;2023-02-23T07:08:33;99618.34;;;3.86;40.72
25084;BME280;13075;55.682;37.564;2023-02-23T07:13:31;99630.47;;;2.65;41.56
25084;BME280;13075;55.682;37.564;2023-02-23T07:15:57;99635.66;;;2.29;41.73
25084;BME280;13075;55.682;37.564;2023-02-23T07:18:23;99639.81;;;1.85;41.93
25084;BME280;13075;55.682;37.564;2023-02-23T07:20:49;99625.78;;;3.21;42.48
25084;BME280;13075;55.682;37.564;2023-02-23T07:23:16;99630.00;;;5.99;39.98
25084;BME280;13075;55.682;37.564;2023-02-23T07:25:42;99638.09;;;7.52;39.61
25084;BME280;13075;55.682;37.564;2023-02-23T07:28:08;99634.50;;;5.74;39.26
25084;BME280;13075;55.682;37.564;2023-02-23T07:30:34;99648.41;;;4.70;40.62
25084;BME280;13075;55.682;37.564;2023-02-23T07:32:59;99645.63;;;5.78;39.62
25084;BME280;13075;55.682;37.564;2023-02-23T07:35:25;99643.97;;;7.48;37.76
25084;BME280;13075;55.682;37.564;2023-02-23T07:37:50;99637.56;;;6.81;38.57
25084;BME280;13075;55.682;37.564;2023-02-23T07:40:16;99644.06;;;5.27;37.84
25084;BME280;13075;55.682;37.564;2023-02-23T07:42:43;99637.63;;;6.96;37.19
25084;BME280;13075;55.682;37.564;2023-02-23T07:45:09;99643.75;;;7.72;36.07
25084;BME280;13075;55.682;37.564;2023-02-23T07:47:35;99653.06;;;7.00;36.49
25084;BME280;13075;55.682;37.564;2023-02-23T07:50:02;99656.00;;;3.79;38.52
25084;BME280;13075;55.682;37.564;2023-02-23T07:52:35;99653.06;;;6.69;36.46
25084;BME280;13075;55.682;37.564;2023-02-23T07:55:01;99660.28;;;3.98;38.90
25084;BME280;13075;55.682;37.564;2023-02-23T07:57:27;99670.34;;;1.88;40.43
25084;BME280;13075;55.682;37.564;2023-02-23T07:59:52;99660.47;;;2.00;40.36
25084;BME280;13075;55.682;37.564;2023-02-23T08:02:18;99657.06;;;5.86;37.27
25084;BME280;13075;55.682;37.564;2023-02-23T08:04:43;99634.50;;;7.45;35.36
25084;BME280;13075;55.682;37.564;2023-02-23T08:07:09;99652.25;;;5.90;36.59
25084;BME280;13075;55.682;37.564;2023-02-23T08:09:35;99648.13;;;4.13;38.21
25084;BME280;13075;55.682;37.564;2023-02-23T08:12:02;99656.72;;;2.39;40.39
25084;BME280;13075;55.682;37.564;2023-02-23T08:14:27;99672.47;;;1.37;41.24
25084;BME280;13075;55.682;37.564;2023-02-23T08:16:53;99659.94;;;0.41;42.46
25084;BME280;13075;55.682;37.564;2023-02-23T08:19:19;99651.09;;;0.12;42.49
25084;BME280;13075;55.682;37.564;2023-02-23T08:21:48;99653.97;;;-0.42;43.39
25084;BME280;13075;55.682;37.564;2023-02-23T08:24:14;99661.25;;;-0.66;44.22
25084;BME280;13075;55.682;37.564;2023-02-23T08:26:40;99667.84;;;-0.72;44.45
25084;BME280;13075;55.682;37.564;2023-02-23T08:29:06;99672.03;;;-1.12;44.91
25084;BME280;13075;55.682;37.564;2023-02-23T08:31:33;99670.38;;;-1.13;45.10
25084;BME280;13075;55.682;37.564;2023-02-23T08:33:58;99663.25;;;-1.22;45.43
25084;BME280;13075;55.682;37.564;2023-02-23T08:36:24;99672.59;;;-1.73;46.10
25084;BME280;13075;55.682;37.564;2023-02-23T08:38:50;99667.94;;;-1.59;46.28
25084;BME280;13075;55.682;37.564;2023-02-23T08:41:16;99669.63;;;-1.69;46.73
25084;BME280;13075;55.682;37.564;2023-02-23T08:43:42;99674.00;;;-2.03;46.92
25084;BME280;13075;55.682;37.564;2023-02-23T08:46:08;99670.06;;;-1.31;46.38
25084;BME280;13075;55.682;37.564;2023-02-23T08:48:34;99675.50;;;-1.11;45.81
25084;BME280;13075;55.682;37.564;2023-02-23T08:51:01;99673.09;;;-1.03;46.01
25084;BME280;13075;55.682;37.564;2023-02-23T08:53:27;99667.38;;;-0.77;45.58
25084;BME280;13075;55.682;37.564;2023-02-23T08:56:04;99669.59;;;-1.47;46.12
25084;BME280;13075;55.682;37.564;2023-02-23T08:58:31;99673.88;;;-1.35;46.59
25084;BME280;13075;55.682;37.564;2023-02-23T09:00:58;99676.66;;;-1.58;46.65
25084;BME280;13075;55.682;37.564;2023-02-23T09:03:25;99680.09;;;-1.47;46.77
25084;BME280;13075;55.682;37.564;2023-02-23T09:05:53;99678.69;;;-1.08;47.00
25084;BME280;13075;55.682;37.564;2023-02-23T09:08:19;99670.41;;;-1.24;46.86
25084;BME280;13075;55.682;37.564;2023-02-23T09:10:45;99673.75;;;-1.22;46.57
25084;BME280;13075;55.682;37.564;2023-02-23T09:13:12;99670.19;;;-1.54;47.02
25084;BME280;13075;55.682;37.564;2023-02-23T09:15:38;99668.25;;;-1.19;47.07
25084;BME280;13075;55.682;37.564;2023-02-23T09:18:05;99678.28;;;-1.24;47.08
25084;BME280;13075;55.682;37.564;2023-02-23T09:20:31;99670.78;;;-1.40;46.91
25084;BME280;13075;55.682;37.564;2023-02-23T09:22:57;99674.88;;;-1.58;47.92
25084;BME280;13075;55.682;37.564;2023-02-23T09:25:23;99663.72;;;-1.17;47.59
25084;BME280;13075;55.682;37.564;2023-02-23T09:27:52;99671.22;;;-1.23;47.07
25084;BME280;13075;55.682;37.564;2023-02-23T09:30:19;99676.69;;;-1.15;46.70
25084;BME280;13075;55.682;37.564;2023-02-23T09:32:49;99668.59;;;-1.23;47.42
25084;BME280;13075;55.682;37.564;2023-02-23T09:35:18;99662.06;;;-0.86;46.54
25084;BME280;13075;55.682;37.564;2023-02-23T09:37:46;99658.63;;;-0.98;46.57
25084;BME280;13075;55.682;37.564;2023-02-23T09:40:17;99651.81;;;-0.89;46.73
25084;BME280;13075;55.682;37.564;2023-02-23T09:48:17;99656.84;;;-0.97;46.77
25084;BME280;13075;55.682;37.564;2023-02-23T09:50:49;99653.38;;;-0.98;46.97
25084;BME280;13075;55.682;37.564;2023-02-23T09:53:25;99662.72;;;-1.05;47.23
25084;BME280;13075;55.682;37.564;2023-02-23T09:55:54;99661.63;;;-1.02;47.30
25084;BME280;13075;55.682;37.564;2023-02-23T09:58:26;99647.63;;;-0.60;47.08
25084;BME280;13075;55.682;37.564;2023-02-23T10:03:49;99654.78;;;-1.37;47.37
25084;BME280;13075;55.682;37.564;2023-02-23T10:06:17;99643.66;;;-0.54;46.84
25084;BME280;13075;55.682;37.564;2023-02-23T10:21:08;99635.38;;;-0.50;46.62
25084;BME280;13075;55.682;37.564;2023-02-23T10:23:44;99633.59;;;-0.29;46.16
25084;BME280;13075;55.682;37.564;2023-02-23T10:26:20;99634.75;;;-0.63;47.41
25084;BME280;13075;55.682;37.564;2023-02-23T10:28:47;99638.22;;;-0.42;46.19
25084;BME280;13075;55.682;37.564;2023-02-23T10:31:29;99631.47;;;-0.55;46.67
25084;BME280;13075;55.682;37.564;2023-02-23T10:34:02;99635.25;;;-0.28;46.91
25084;BME280;13075;55.682;37.564;2023-02-23T10:36:36;99631.00;;;-0.19;46.97
25084;BME280;13075;55.682;37.564;2023-02-23T10:39:04;99648.06;;;-0.55;46.89
25084;BME280;13075;55.682;37.564;2023-02-23T10:41:31;99633.50;;;-0.18;46.83
25084;BME280;13075;55.682;37.564;2023-02-23T10:43:58;99641.78;;;-0.64;47.33
25084;BME280;13075;55.682;37.564;2023-02-23T10:46:30;99640.59;;;-0.59;47.02
25084;BME280;13075;55.682;37.564;2023-02-23T10:48:59;99645.31;;;-0.53;47.60
25084;BME280;13075;55.682;37.564;2023-02-23T10:51:29;99638.06;;;-0.20;46.61
25084;BME280;13075;55.682;37.564;2023-02-23T10:53:57;99638.50;;;-0.77;47.22
25084;BME280;13075;55.682;37.564;2023-02-23T10:56:23;99639.28;;;-0.65;47.77
25084;BME280;13075;55.682;37.564;2023-02-23T11:01:36;99639.81;;;-0.82;47.31
25084;BME280;13075;55.682;37.564;2023-02-23T11:04:26;99634.69;;;-0.52;46.28
25084;BME280;13075;55.682;37.564;2023-02-23T11:07:28;99636.78;;;-0.67;46.63
25084;BME280;13075;55.682;37.564;2023-02-23T11:10:22;99632.03;;;-0.93;47.00
25084;BME280;13075;55.682;37.564;2023-02-23T11:12:44;99634.47;;;-0.81;47.39
25084;BME280;13075;55.682;37.564;2023-02-23T11:15:28;99628.34;;;-0.70;47.03
25084;BME280;13075;55.682;37.564;2023-02-23T11:17:54;99628.34;;;-0.70;46.43
25084;BME280;13075;55.682;37.564;2023-02-23T11:20:32;99632.16;;;-0.74;47.31
25084;BME280;13075;55.682;37.564;2023-02-23T11:23:10;99622.38;;;-1.04;47.52
25084;BME280;13075;55.682;37.564;2023-02-23T11:25:42;99619.69;;;-0.93;47.54
25084;BME280;13075;55.682;37.564;2023-02-23T11:28:19;99625.41;;;-0.88;47.64
25084;BME280;13075;55.682;37.564;2023-02-23T11:30:47;99612.44;;;-0.48;47.35
25084;BME280;13075;55.682;37.564;2023-02-23T11:33:16;99624.94;;;-0.61;47.10
25084;BME280;13075;55.682;37.564;2023-02-23T11:35:42;99624.75;;;-0.48;47.41
25084;BME280;13075;55.682;37.564;2023-02-23T11:38:22;99626.47;;;-0.38;47.16
25084;BME280;13075;55.682;37.564;2023-02-23T11:43:28;99625.97;;;-0.02;46.78
25084;BME280;13075;55.682;37.564;2023-02-23T11:45:56;99628.09;;;0.05;46.90
25084;BME280;13075;55.682;37.564;2023-02-23T11:48:34;99635.88;;;-0.77;47.70
25084;BME280;13075;55.682;37.564;2023-02-23T11:51:02;99631.91;;;-0.71;47.68
25084;BME280;13075;55.682;37.564;2023-02-23T11:53:38;99625.31;;;-0.45;46.79
25084;BME280;13075;55.682;37.564;2023-02-23T11:56:05;99615.97;;;-0.08;46.84
25084;BME280;13075;55.682;37.564;2023-02-23T11:58:49;99623.41;;;-0.64;47.06
25084;BME280;13075;55.682;37.564;2023-02-23T12:02:45;99617.25;;;-0.53;46.72
25084;BME280;13075;55.682;37.564;2023-02-23T12:04:32;99622.91;;;-0.89;47.36
25084;BME280;13075;55.682;37.564;2023-02-23T12:07:26;99622.50;;;-0.74;47.34
25084;BME280;13075;55.682;37.564;2023-02-23T12:10:23;99624.72;;;-0.69;47.57
25084;BME280;13075;55.682;37.564;2023-02-23T12:13:08;99625.84;;;-1.03;47.84
25084;BME280;13075;55.682;37.564;2023-02-23T12:22:09;99622.16;;;-1.01;47.06
25084;BME280;13075;55.682;37.564;2023-02-23T12:27:16;99625.75;;;-0.81;47.00
25084;BME280;13075;55.682;37.564;2023-02-23T12:35:52;99608.97;;;-0.69;46.13
25084;BME280;13075;55.682;37.564;2023-02-23T12:38:45;99611.16;;;-0.53;45.95
25084;BME280;13075;55.682;37.564;2023-02-23T12:41:17;99612.44;;;-0.27;45.27
25084;BME280;13075;55.682;37.564;2023-02-23T12:43:51;99620.13;;;-0.35;45.42
25084;BME280;13075;55.682;37.564;2023-02-23T12:46:38;99618.66;;;-0.49;45.73
25084;BME280;13075;55.682;37.564;2023-02-23T12:49:15;99625.72;;;-0.29;45.53
25084;BME280;13075;55.682;37.564;2023-02-23T12:51:44;99626.63;;;-0.60;45.83
25084;BME280;13075;55.682;37.564;2023-02-23T12:54:14;99618.13;;;-0.64;45.88
25084;BME280;13075;55.682;37.564;2023-02-23T12:56:55;99628.84;;;-0.55;45.55
25084;BME280;13075;55.682;37.564;2023-02-23T13:02:40;99618.78;;;0.00;45.38
25084;BME280;13075;55.682;37.564;2023-02-23T13:05:29;99628.53;;;-0.21;44.83
25084;BME280;13075;55.682;37.564;2023-02-23T13:08:22;99623.19;;;-0.51;46.00
25084;BME280;13075;55.682;37.564;2023-02-23T13:16:33;99611.53;;;-0.58;45.80
25084;BME280;13075;55.682;37.564;2023-02-23T13:19:11;99620.13;;;-0.77;46.43
25084;BME280;13075;55.682;37.564;2023-02-23T13:24:35;99620.56;;;-1.24;46.47
25084;BME280;13075;55.682;37.564;2023-02-23T13:29:41;99624.53;;;-0.77;46.43
25084;BME280;13075;55.682;37.564;2023-02-23T13:32:16;99624.03;;;-0.71;46.57
25084;BME280;13075;55.682;37.564;2023-02-23T13:34:49;99626.13;;;-0.86;46.53
25084;BME280;13075;55.682;37.564;2023-02-23T13:37:20;99625.50;;;-1.53;47.38
25084;BME280;13075;55.682;37.564;2023-02-23T13:42:38;99644.72;;;-1.63;47.50
25084;BME280;13075;55.682;37.564;2023-02-23T13:47:51;99622.50;;;-1.37;48.53
25084;BME280;13075;55.682;37.564;2023-02-23T13:50:39;99631.84;;;-0.81;47.98
25084;BME280;13075;55.682;37.564;2023-02-23T13:55:57;99619.53;;;-1.01;48.40
25084;BME280;13075;55.682;37.564;2023-02-23T13:58:29;99621.31;;;-1.01;48.12
25084;BME280;13075;55.682;37.564;2023-02-23T14:01:10;99626.06;;;-0.75;47.96
25084;BME280;13075;55.682;37.564;2023-02-23T14:03:43;99632.03;;;-0.93;48.18
25084;BME280;13075;55.682;37.564;2023-02-23T14:06:13;99625.91;;;-1.26;48.57
25084;BME280;13075;55.682;37.564;2023-02-23T14:08:42;99622.66;;;-1.61;49.24
25084;BME280;13075;55.682;37.564;2023-02-23T14:11:09;99629.38;;;-1.25;48.97
25084;BME280;13075;55.682;37.564;2023-02-23T14:13:40;99616.72;;;-1.31;48.96
25084;BME280;13075;55.682;37.564;2023-02-23T14:16:18;99623.50;;;-1.17;48.78
25084;BME280;13075;55.682;37.564;2023-02-23T14:21:29;99624.38;;;-1.28;49.36
25084;BME280;13075;55.682;37.564;2023-02-23T14:24:18;99617.84;;;-1.02;49.30
25084;BME280;13075;55.682;37.564;2023-02-23T14:32:44;99609.69;;;-1.31;49.48
25084;BME280;13075;55.682;37.564;2023-02-23T14:38:02;99612.16;;;-1.61;51.00
25084;BME280;13075;55.682;37.564;2023-02-23T14:40:41;99600.06;;;-1.52;50.32
25084;BME280;13075;55.682;37.564;2023-02-23T14:46:06;99611.06;;;-1.47;50.18
25084;BME280;13075;55.682;37.564;2023-02-23T14:48:33;99608.47;;;-1.80;51.46
25084;BME280;13075;55.682;37.564;2023-02-23T14:51:19;99598.59;;;-1.88;51.35
25084;BME280;13075;55.682;37.564;2023-02-23T14:53:46;99600.97;;;-1.85;51.40
25084;BME280;13075;55.682;37.564;2023-02-23T14:56:22;99592.56;;;-1.46;51.08
25084;BME280;13075;55.682;37.564;2023-02-23T14:58:53;99598.94;;;-1.93;51.20
25084;BME280;13075;55.682;37.564;2023-02-23T15:01:51;99587.84;;;-1.63;51.48
25084;BME280;13075;55.682;37.564;2023-02-23T15:04:25;99589.44;;;-2.05;51.80
25084;BME280;13075;55.682;37.564;2023-02-23T15:06:57;99600.50;;;-2.01;51.77
25084;BME280;13075;55.682;37.564;2023-02-23T15:11:55;99594.19;;;-1.99;51.73
25084;BME280;13075;55.682;37.564;2023-02-23T15:14:23;99596.91;;;-2.11;51.36
25084;BME280;13075;55.682;37.564;2023-02-23T15:16:48;99591.56;;;-2.21;51.23